createdAt,value
2022-08-21T00:02:34.427Z,8.38
2022-08-21T00:07:36.302Z,8.32
2022-08-21T00:12:38.549Z,8.23
2022-08-21T00:17:40.659Z,9.45
2022-08-21T00:22:43.138Z,8.38
2022-08-21T00:27:45.452Z,9.07
2022-08-21T00:32:47.473Z,9.60
2022-08-21T00:37:50.172Z,9.07
2022-08-21T00:42:53.790Z,9.48
2022-08-21T00:47:56.114Z,8.75
2022-08-21T00:52:58.426Z,8.13
2022-08-21T00:58:02.589Z,8.65
2022-08-21T01:03:09.046Z,9.02
2022-08-21T01:08:12.286Z,8.32
2022-08-21T01:13:17.401Z,8.80
2022-08-21T01:18:20.633Z,9.40
2022-08-21T01:23:22.402Z,8.80
2022-08-21T01:28:24.980Z,9.02
2022-08-21T01:33:26.763Z,6.50
2022-08-21T01:38:28.614Z,6.60
2022-08-21T01:43:39.379Z,6.57
2022-08-21T01:48:42.490Z,7.07
2022-08-21T01:53:44.762Z,7.57
2022-08-21T01:58:48.385Z,7.07
2022-08-21T02:03:50.196Z,6.88
2022-08-21T02:08:52.738Z,7.13
2022-08-21T02:13:54.539Z,6.80
2022-08-21T02:18:56.371Z,6.63
2022-08-21T02:23:58.406Z,6.55
2022-08-21T02:29:00.669Z,7.03
2022-08-21T02:34:02.527Z,6.65
2022-08-21T02:39:04.413Z,6.28
2022-08-21T02:44:06.240Z,5.95
2022-08-21T02:49:08.015Z,5.60
2022-08-21T02:54:09.800Z,6.32
2022-08-21T02:59:11.581Z,4.90
2022-08-21T03:04:13.361Z,5.15
2022-08-21T03:09:15.247Z,4.90
2022-08-21T03:14:17.011Z,4.47
2022-08-21T03:19:18.762Z,4.22
2022-08-21T03:24:21.250Z,4.45
2022-08-21T03:29:24.737Z,4.50
2022-08-21T03:34:26.551Z,4.60
2022-08-21T03:39:28.307Z,4.60
2022-08-21T03:44:30.916Z,4.15
2022-08-21T03:49:32.898Z,4.22
2022-08-21T03:54:34.703Z,4.30
2022-08-21T03:59:38.165Z,4.30
2022-08-21T04:04:39.996Z,4.55
2022-08-21T04:09:41.785Z,4.07
2022-08-21T04:14:43.547Z,4.10
2022-08-21T04:19:49.367Z,8.00
2022-08-21T04:24:55.245Z,3.78
2022-08-21T04:29:57.024Z,3.53
2022-08-21T04:35:04.899Z,3.58
2022-08-21T04:40:08.573Z,3.40
2022-08-21T04:45:10.388Z,3.42
2022-08-21T04:50:12.153Z,3.38
2022-08-21T04:55:28.963Z,3.30
2022-08-21T05:00:30.883Z,3.13
2022-08-21T05:05:33.232Z,3.15
2022-08-21T05:10:35.181Z,3.28
2022-08-21T05:15:38.363Z,3.03
2022-08-21T05:20:40.198Z,4.22
2022-08-21T05:25:42.378Z,4.07
2022-08-21T05:30:44.828Z,3.88
2022-08-21T05:35:46.689Z,3.92
2022-08-21T05:40:48.582Z,3.05
2022-08-21T05:45:50.443Z,2.75
2022-08-21T05:50:53.511Z,2.92
2022-08-21T05:55:55.326Z,3.10
2022-08-21T06:00:58.840Z,3.17
2022-08-21T06:06:01.137Z,2.97
2022-08-21T06:11:04.229Z,2.95
2022-08-21T06:16:10.265Z,3.00
2022-08-21T06:21:14.329Z,2.50
2022-08-21T06:26:16.294Z,2.75
2022-08-21T06:31:24.418Z,2.65
2022-08-21T06:36:26.315Z,2.58
2022-08-21T06:41:28.421Z,2.92
2022-08-21T06:46:31.553Z,2.10
2022-08-21T06:51:33.322Z,2.90
2022-08-21T06:56:36.255Z,2.75
2022-08-21T07:01:38.079Z,2.17
2022-08-21T07:06:39.890Z,2.58
2022-08-21T07:11:47.623Z,2.80
2022-08-21T07:16:50.367Z,2.65
2022-08-21T07:21:54.123Z,2.47
2022-08-21T07:26:56.065Z,2.47
2022-08-21T07:31:57.907Z,2.78
2022-08-21T07:36:59.691Z,2.63
2022-08-21T07:42:08.687Z,2.30
2022-08-21T07:47:10.621Z,2.65
2022-08-21T07:52:12.409Z,2.70
2022-08-21T07:57:14.264Z,2.35
2022-08-21T08:02:28.088Z,2.55
2022-08-21T08:12:31.801Z,1.60
2022-08-21T08:17:33.691Z,3.63
2022-08-21T08:22:38.354Z,2.95
2022-08-21T08:27:40.538Z,2.42
2022-08-21T08:32:42.682Z,1.75
2022-08-21T08:37:49.048Z,1.90
2022-08-21T08:42:54.351Z,2.05
2022-08-21T08:48:06.834Z,2.90
2022-08-21T08:53:34.097Z,2.10
2022-08-21T08:58:40.365Z,2.40
2022-08-21T09:03:42.434Z,2.30
2022-08-21T09:08:50.521Z,2.20
2022-08-21T09:14:17.869Z,3.30
2022-08-21T09:19:33.402Z,2.08
2022-08-21T09:24:56.207Z,2.03
2022-08-21T09:29:59.564Z,1.70
2022-08-21T09:35:23.107Z,2.10
2022-08-21T09:40:33.783Z,1.80
2022-08-21T09:45:36.304Z,2.10
2022-08-21T09:50:38.119Z,1.95
2022-08-21T09:56:11.595Z,2.03
2022-08-21T10:01:17.918Z,2.10
2022-08-21T10:06:27.570Z,1.80
2022-08-21T10:11:30.464Z,2.20
2022-08-21T10:16:54.553Z,2.00
2022-08-21T10:22:30.931Z,1.98
2022-08-21T10:27:45.179Z,2.20
2022-08-21T10:33:02.927Z,2.00
2022-08-21T10:38:52.618Z,2.30
2022-08-21T10:44:16.076Z,2.10
2022-08-21T10:49:37.272Z,2.10
2022-08-21T10:54:52.787Z,1.70
2022-08-21T11:00:04.514Z,2.03
2022-08-21T11:05:11.681Z,2.00
2022-08-21T11:10:25.623Z,2.47
2022-08-21T11:15:36.074Z,2.20
2022-08-21T11:20:49.086Z,2.40
2022-08-21T11:25:58.892Z,1.95
2022-08-21T11:31:34.893Z,2.03
2022-08-21T11:36:47.720Z,2.15
2022-08-21T11:42:06.929Z,1.40
2022-08-21T11:47:18.837Z,1.35
2022-08-21T11:52:36.801Z,1.50
2022-08-21T11:58:00.530Z,2.00
2022-08-21T12:03:36.555Z,1.30
2022-08-21T12:08:44.578Z,1.63
2022-08-21T12:14:04.632Z,1.50
2022-08-21T12:19:17.702Z,1.50
2022-08-21T12:24:45.720Z,1.20
2022-08-21T12:29:51.971Z,1.08
2022-08-21T12:35:07.115Z,1.00
2022-08-21T12:40:30.880Z,1.30
2022-08-21T12:45:38.368Z,1.30
2022-08-21T12:50:50.483Z,1.10
2022-08-21T12:55:52.599Z,1.50
2022-08-21T13:01:19.411Z,1.20
2022-08-21T13:06:23.233Z,1.27
2022-08-21T13:11:33.750Z,1.75
2022-08-21T13:16:36.276Z,1.23
2022-08-21T13:21:43.818Z,1.38
2022-08-21T13:26:46.313Z,1.25
2022-08-21T13:31:53.907Z,1.40
2022-08-21T13:36:59.312Z,1.65
2022-08-21T13:42:03.235Z,1.48
2022-08-21T13:47:10.075Z,1.67
2022-08-21T13:52:30.020Z,2.00
2022-08-21T13:57:34.354Z,1.75
2022-08-21T14:02:41.737Z,2.83
2022-08-21T14:07:45.139Z,1.80
2022-08-21T14:12:57.722Z,2.30
2022-08-21T14:18:20.609Z,2.00
2022-08-21T14:23:26.906Z,2.10
2022-08-21T14:28:39.662Z,2.10
2022-08-21T14:33:42.981Z,2.03
2022-08-21T14:38:44.765Z,2.53
2022-08-21T14:43:47.698Z,1.80
2022-08-21T14:49:01.756Z,2.22
2022-08-21T14:54:03.577Z,1.90
2022-08-21T14:59:09.900Z,2.42
2022-08-21T15:04:12.014Z,2.35
2022-08-21T15:09:13.797Z,3.30
2022-08-21T15:14:21.540Z,2.72
2022-08-21T15:19:23.722Z,2.75
2022-08-21T15:24:26.205Z,3.00
2022-08-21T15:29:33.530Z,2.90
2022-08-21T15:34:35.557Z,2.50
2022-08-21T15:39:38.968Z,3.33
2022-08-21T15:44:43.606Z,2.25
2022-08-21T15:49:46.349Z,2.08
2022-08-21T15:54:48.747Z,2.10
2022-08-21T15:59:53.914Z,2.42
2022-08-21T16:04:56.948Z,2.70
2022-08-21T16:09:58.793Z,2.90
2022-08-21T16:15:02.222Z,3.70
2022-08-21T16:20:08.814Z,3.00
2022-08-21T16:25:10.635Z,2.65
2022-08-21T16:30:13.217Z,2.10
2022-08-21T16:35:17.359Z,2.38
2022-08-21T16:40:19.374Z,2.40
2022-08-21T16:45:21.909Z,2.70
2022-08-21T16:50:25.366Z,2.88
2022-08-21T16:55:27.150Z,2.70
2022-08-21T17:00:28.929Z,2.42
2022-08-21T17:05:30.738Z,3.40
2022-08-21T17:10:32.999Z,2.65
2022-08-21T17:15:37.139Z,3.38
2022-08-21T17:20:38.993Z,2.60
2022-08-21T17:25:43.954Z,3.17
2022-08-21T17:30:46.212Z,2.63
2022-08-21T17:35:48.659Z,2.60
2022-08-21T17:40:50.719Z,2.90
2022-08-21T17:45:53.460Z,2.92
2022-08-21T17:50:55.288Z,2.78
2022-08-21T17:55:57.594Z,2.83
2022-08-21T18:01:03.763Z,3.20
2022-08-21T18:06:06.762Z,4.85
2022-08-21T18:11:10.430Z,5.10
2022-08-21T18:16:21.013Z,12.98
2022-08-21T18:21:23.596Z,4.80
2022-08-21T18:26:34.963Z,3.85
2022-08-21T18:31:39.034Z,4.22
2022-08-21T18:36:40.838Z,12.02
2022-08-21T18:41:44.638Z,5.10
2022-08-21T18:46:54.250Z,4.85
2022-08-21T18:51:56.613Z,5.63
2022-08-21T18:56:59.308Z,6.88
2022-08-21T19:02:01.228Z,6.35
2022-08-21T19:07:04.271Z,6.28
2022-08-21T19:12:07.371Z,5.20
2022-08-21T19:17:13.414Z,6.55
2022-08-21T19:22:15.188Z,6.47
2022-08-21T19:27:19.330Z,4.40
2022-08-21T19:32:21.272Z,4.43
2022-08-21T19:37:23.450Z,5.43
2022-08-21T19:42:30.896Z,5.40
2022-08-21T19:47:33.744Z,5.18
2022-08-21T19:52:35.833Z,5.82
2022-08-21T19:57:39.215Z,8.23
2022-08-21T20:02:48.035Z,6.50
2022-08-21T20:07:50.145Z,4.90
2022-08-21T20:12:53.590Z,4.82
2022-08-21T20:17:55.379Z,5.20
2022-08-21T20:22:57.627Z,5.43
2022-08-21T20:28:01.318Z,4.22
2022-08-21T20:33:03.576Z,4.50
2022-08-21T20:38:05.552Z,4.38
2022-08-21T20:43:08.372Z,4.20
2022-08-21T20:48:48.913Z,4.07
2022-08-21T20:54:04.928Z,3.72
2022-08-21T20:59:10.594Z,3.67
2022-08-21T21:04:26.617Z,3.47
2022-08-21T21:09:41.292Z,3.67
2022-08-21T21:14:48.621Z,3.55
2022-08-21T21:19:58.920Z,3.75
2022-08-21T21:25:42.107Z,4.50
2022-08-21T21:30:47.160Z,3.75
2022-08-21T21:36:24.168Z,3.67
2022-08-21T21:41:36.764Z,5.13
2022-08-21T21:46:48.906Z,4.00
2022-08-21T21:52:12.168Z,4.45
2022-08-21T21:57:52.697Z,4.38
2022-08-21T22:03:22.526Z,4.15
2022-08-21T22:08:33.481Z,4.05
2022-08-21T22:14:22.749Z,3.92
2022-08-21T22:19:29.358Z,4.45
2022-08-21T22:24:37.700Z,3.90
2022-08-21T22:29:55.424Z,4.35
2022-08-21T22:35:23.759Z,4.38
2022-08-21T22:40:32.467Z,3.42
2022-08-21T22:45:58.713Z,4.00
2022-08-21T22:51:05.926Z,3.85
2022-08-21T22:56:08.834Z,3.03
2022-08-21T23:01:22.916Z,4.00
2022-08-21T23:06:39.959Z,3.88
2022-08-21T23:11:44.837Z,3.75
2022-08-21T23:17:05.144Z,4.43
2022-08-21T23:27:56.430Z,3.47
2022-08-21T23:33:36.044Z,3.78
2022-08-21T23:38:51.427Z,3.45
2022-08-21T23:44:10.682Z,3.50
2022-08-21T23:49:26.742Z,2.90
2022-08-21T23:54:40.663Z,2.60
